sensor_id;sensor_type;location;lat;lon;timestamp;temperature;humidity
14014;DHT22;49110;52.584;13.408;2023-06-14T00:00:44;16.90;71.60
14014;DHT22;49110;52.584;13.408;2023-06-14T00:01:44;16.90;71.70
14014;DHT22;49110;52.584;13.408;2023-06-14T00:02:48;16.80;71.80
14014;DHT22;49110;52.584;13.408;2023-06-14T00:03:49;16.80;71.90
14014;DHT22;49110;52.584;13.408;2023-06-14T00:04:49;16.80;72.00
14014;DHT22;49110;52.584;13.408;2023-06-14T00:05:52;16.80;72.00
14014;DHT22;49110;52.584;13.408;2023-06-14T00:06:53;16.70;71.90
14014;DHT22;49110;52.584;13.408;2023-06-14T00:07:54;16.70;72.20
14014;DHT22;49110;52.584;13.408;2023-06-14T00:08:54;16.70;72.60
14014;DHT22;49110;52.584;13.408;2023-06-14T00:09:55;16.70;72.70
14014;DHT22;49110;52.584;13.408;2023-06-14T00:10:55;16.60;72.70
14014;DHT22;49110;52.584;13.408;2023-06-14T00:11:55;16.60;73.00
14014;DHT22;49110;52.584;13.408;2023-06-14T00:12:56;16.60;73.10
14014;DHT22;49110;52.584;13.408;2023-06-14T00:13:57;16.60;73.30
14014;DHT22;49110;52.584;13.408;2023-06-14T00:14:57;16.60;73.30
14014;DHT22;49110;52.584;13.408;2023-06-14T00:15:58;16.50;73.50
14014;DHT22;49110;52.584;13.408;2023-06-14T00:16:58;16.50;73.90
14014;DHT22;49110;52.584;13.408;2023-06-14T00:17:59;16.50;74.00
14014;DHT22;49110;52.584;13.408;2023-06-14T00:19:04;16.50;74.20
14014;DHT22;49110;52.584;13.408;2023-06-14T00:20:05;16.50;74.20
14014;DHT22;49110;52.584;13.408;2023-06-14T00:21:06;16.50;74.20
14014;DHT22;49110;52.584;13.408;2023-06-14T00:22:07;16.60;74.30
14014;DHT22;49110;52.584;13.408;2023-06-14T00:23:07;16.60;74.20
14014;DHT22;49110;52.584;13.408;2023-06-14T00:24:08;16.70;74.10
14014;DHT22;49110;52.584;13.408;2023-06-14T00:25:08;16.70;73.90
14014;DHT22;49110;52.584;13.408;2023-06-14T00:26:09;16.80;73.90
14014;DHT22;49110;52.584;13.408;2023-06-14T00:27:09;16.80;73.90
14014;DHT22;49110;52.584;13.408;2023-06-14T00:28:10;16.80;73.90
14014;DHT22;49110;52.584;13.408;2023-06-14T00:29:10;16.70;73.80
14014;DHT22;49110;52.584;13.408;2023-06-14T00:30:11;16.70;74.00
14014;DHT22;49110;52.584;13.408;2023-06-14T00:31:12;16.60;74.30
14014;DHT22;49110;52.584;13.408;2023-06-14T00:32:12;16.50;74.50
14014;DHT22;49110;52.584;13.408;2023-06-14T00:33:13;16.50;74.80
14014;DHT22;49110;52.584;13.408;2023-06-14T00:34:14;16.50;75.00
14014;DHT22;49110;52.584;13.408;2023-06-14T00:35:14;16.60;75.10
14014;DHT22;49110;52.584;13.408;2023-06-14T00:36:15;16.60;74.90
14014;DHT22;49110;52.584;13.408;2023-06-14T00:37:15;16.60;74.80
14014;DHT22;49110;52.584;13.408;2023-06-14T00:38:16;16.60;74.80
14014;DHT22;49110;52.584;13.408;2023-06-14T00:39:16;16.60;75.00
14014;DHT22;49110;52.584;13.408;2023-06-14T00:40:17;16.50;75.30
14014;DHT22;49110;52.584;13.408;2023-06-14T00:41:17;16.40;75.70
14014;DHT22;49110;52.584;13.408;2023-06-14T00:42:25;16.30;76.10
14014;DHT22;49110;52.584;13.408;2023-06-14T00:43:25;16.30;76.70
14014;DHT22;49110;52.584;13.408;2023-06-14T00:44:26;16.20;76.90
14014;DHT22;49110;52.584;13.408;2023-06-14T00:45:26;16.20;77.10
14014;DHT22;49110;52.584;13.408;2023-06-14T00:46:27;16.20;77.10
14014;DHT22;49110;52.584;13.408;2023-06-14T00:47:27;16.30;77.00
14014;DHT22;49110;52.584;13.408;2023-06-14T00:48:28;16.30;76.80
14014;DHT22;49110;52.584;13.408;2023-06-14T00:49:29;16.30;76.80
14014;DHT22;49110;52.584;13.408;2023-06-14T00:50:30;16.30;76.90
14014;DHT22;49110;52.584;13.408;2023-06-14T00:51:32;16.30;77.10
14014;DHT22;49110;52.584;13.408;2023-06-14T00:52:33;16.30;77.20
14014;DHT22;49110;52.584;13.408;2023-06-14T00:53:35;16.30;77.30
14014;DHT22;49110;52.584;13.408;2023-06-14T00:54:36;16.40;77.30
14014;DHT22;49110;52.584;13.408;2023-06-14T00:55:36;16.40;77.30
14014;DHT22;49110;52.584;13.408;2023-06-14T00:56:37;16.40;77.40
14014;DHT22;49110;52.584;13.408;2023-06-14T00:57:38;16.40;77.50
14014;DHT22;49110;52.584;13.408;2023-06-14T00:58:41;16.40;77.50
14014;DHT22;49110;52.584;13.408;2023-06-14T00:59:44;16.40;77.50
14014;DHT22;49110;52.584;13.408;2023-06-14T01:00:45;16.40;77.50
14014;DHT22;49110;52.584;13.408;2023-06-14T01:01:45;16.40;77.50
14014;DHT22;49110;52.584;13.408;2023-06-14T01:02:46;16.40;77.50
14014;DHT22;49110;52.584;13.408;2023-06-14T01:03:47;16.30;77.60
14014;DHT22;49110;52.584;13.408;2023-06-14T01:04:48;16.40;77.90
14014;DHT22;49110;52.584;13.408;2023-06-14T01:06:05;16.30;77.90
14014;DHT22;49110;52.584;13.408;2023-06-14T01:07:25;16.30;78.10
14014;DHT22;49110;52.584;13.408;2023-06-14T01:08:46;16.40;78.10
14014;DHT22;49110;52.584;13.408;2023-06-14T01:10:12;16.40;77.90
14014;DHT22;49110;52.584;13.408;2023-06-14T01:11:24;16.50;78.00
14014;DHT22;49110;52.584;13.408;2023-06-14T01:12:46;16.50;78.00
14014;DHT22;49110;52.584;13.408;2023-06-14T01:13:47;16.40;78.00
14014;DHT22;49110;52.584;13.408;2023-06-14T01:14:50;16.40;78.10
14014;DHT22;49110;52.584;13.408;2023-06-14T01:15:52;16.40;78.80
14014;DHT22;49110;52.584;13.408;2023-06-14T01:16:53;16.40;78.00
14014;DHT22;49110;52.584;13.408;2023-06-14T01:17:55;16.50;78.10
14014;DHT22;49110;52.584;13.408;2023-06-14T01:19:03;16.50;77.90
14014;DHT22;49110;52.584;13.408;2023-06-14T01:20:05;16.60;77.80
14014;DHT22;49110;52.584;13.408;2023-06-14T01:21:23;16.50;77.80
14014;DHT22;49110;52.584;13.408;2023-06-14T01:22:27;16.50;78.10
14014;DHT22;49110;52.584;13.408;2023-06-14T01:23:27;16.50;78.00
14014;DHT22;49110;52.584;13.408;2023-06-14T01:24:32;16.50;78.00
14014;DHT22;49110;52.584;13.408;2023-06-14T01:25:35;16.60;78.00
14014;DHT22;49110;52.584;13.408;2023-06-14T01:26:36;16.60;77.90
14014;DHT22;49110;52.584;13.408;2023-06-14T01:27:38;16.60;77.90
14014;DHT22;49110;52.584;13.408;2023-06-14T01:28:38;16.60;77.90
14014;DHT22;49110;52.584;13.408;2023-06-14T01:29:40;16.60;77.70
14014;DHT22;49110;52.584;13.408;2023-06-14T01:30:49;16.50;77.80
14014;DHT22;49110;52.584;13.408;2023-06-14T01:31:53;16.60;78.00
14014;DHT22;49110;52.584;13.408;2023-06-14T01:32:54;16.50;78.00
14014;DHT22;49110;52.584;13.408;2023-06-14T01:33:56;16.50;77.90
14014;DHT22;49110;52.584;13.408;2023-06-14T01:34:56;16.60;77.90
14014;DHT22;49110;52.584;13.408;2023-06-14T01:35:58;16.60;77.80
14014;DHT22;49110;52.584;13.408;2023-06-14T01:37:00;16.60;77.80
14014;DHT22;49110;52.584;13.408;2023-06-14T01:38:02;16.50;78.10
14014;DHT22;49110;52.584;13.408;2023-06-14T01:39:04;16.40;78.50
14014;DHT22;49110;52.584;13.408;2023-06-14T01:40:06;16.30;78.60
14014;DHT22;49110;52.584;13.408;2023-06-14T01:41:07;16.30;78.70
14014;DHT22;49110;52.584;13.408;2023-06-14T01:42:09;16.30;78.90
14014;DHT22;49110;52.584;13.408;2023-06-14T01:43:13;16.20;78.90
14014;DHT22;49110;52.584;13.408;2023-06-14T01:44:14;16.10;79.20
14014;DHT22;49110;52.584;13.408;2023-06-14T01:45:16;16.00;79.50
14014;DHT22;49110;52.584;13.408;2023-06-14T01:46:17;16.00;79.90
14014;DHT22;49110;52.584;13.408;2023-06-14T01:47:18;16.00;80.30
14014;DHT22;49110;52.584;13.408;2023-06-14T01:48:19;16.00;80.20
14014;DHT22;49110;52.584;13.408;2023-06-14T01:49:20;16.00;80.20
14014;DHT22;49110;52.584;13.408;2023-06-14T01:50:21;16.00;80.20
14014;DHT22;49110;52.584;13.408;2023-06-14T01:51:21;16.00;80.30
14014;DHT22;49110;52.584;13.408;2023-06-14T01:52:22;15.90;80.60
14014;DHT22;49110;52.584;13.408;2023-06-14T01:53:24;15.90;80.90
14014;DHT22;49110;52.584;13.408;2023-06-14T01:54:25;15.80;81.00
14014;DHT22;49110;52.584;13.408;2023-06-14T01:55:26;15.80;82.10
14014;DHT22;49110;52.584;13.408;2023-06-14T01:56:27;15.90;81.40
14014;DHT22;49110;52.584;13.408;2023-06-14T01:57:28;15.90;81.30
14014;DHT22;49110;52.584;13.408;2023-06-14T01:58:28;16.00;81.10
14014;DHT22;49110;52.584;13.408;2023-06-14T01:59:29;16.10;81.10
14014;DHT22;49110;52.584;13.408;2023-06-14T02:00:31;16.10;80.80
14014;DHT22;49110;52.584;13.408;2023-06-14T02:01:32;16.20;80.60
14014;DHT22;49110;52.584;13.408;2023-06-14T02:02:34;16.20;80.50
14014;DHT22;49110;52.584;13.408;2023-06-14T02:03:35;16.20;80.50
14014;DHT22;49110;52.584;13.408;2023-06-14T02:04:38;16.20;80.60
14014;DHT22;49110;52.584;13.408;2023-06-14T02:05:38;16.10;80.50
14014;DHT22;49110;52.584;13.408;2023-06-14T02:06:40;16.00;80.80
14014;DHT22;49110;52.584;13.408;2023-06-14T02:07:40;15.90;81.20
14014;DHT22;49110;52.584;13.408;2023-06-14T02:08:41;15.90;81.80
14014;DHT22;49110;52.584;13.408;2023-06-14T02:09:41;15.80;82.20
14014;DHT22;49110;52.584;13.408;2023-06-14T02:10:42;15.70;82.60
14014;DHT22;49110;52.584;13.408;2023-06-14T02:11:42;15.60;82.80
14014;DHT22;49110;52.584;13.408;2023-06-14T02:12:43;15.70;83.00
14014;DHT22;49110;52.584;13.408;2023-06-14T02:13:44;15.80;83.00
14014;DHT22;49110;52.584;13.408;2023-06-14T02:14:45;15.90;83.00
14014;DHT22;49110;52.584;13.408;2023-06-14T02:15:45;15.80;82.70
14014;DHT22;49110;52.584;13.408;2023-06-14T02:16:46;15.80;82.70
14014;DHT22;49110;52.584;13.408;2023-06-14T02:17:49;15.80;82.80
14014;DHT22;49110;52.584;13.408;2023-06-14T02:18:50;15.80;82.90
14014;DHT22;49110;52.584;13.408;2023-06-14T02:19:51;15.90;82.90
14014;DHT22;49110;52.584;13.408;2023-06-14T02:20:52;15.90;82.60
14014;DHT22;49110;52.584;13.408;2023-06-14T02:21:53;15.90;82.40
14014;DHT22;49110;52.584;13.408;2023-06-14T02:22:54;16.00;82.30
14014;DHT22;49110;52.584;13.408;2023-06-14T02:23:54;16.00;82.00
14014;DHT22;49110;52.584;13.408;2023-06-14T02:24:54;16.10;82.10
14014;DHT22;49110;52.584;13.408;2023-06-14T02:25:55;16.10;82.10
14014;DHT22;49110;52.584;13.408;2023-06-14T02:26:56;16.10;82.00
14014;DHT22;49110;52.584;13.408;2023-06-14T02:27:57;16.10;82.00
14014;DHT22;49110;52.584;13.408;2023-06-14T02:28:57;16.10;81.90
14014;DHT22;49110;52.584;13.408;2023-06-14T02:29:57;16.10;81.90
14014;DHT22;49110;52.584;13.408;2023-06-14T02:30:58;16.10;81.80
14014;DHT22;49110;52.584;13.408;2023-06-14T02:31:58;16.20;81.90
14014;DHT22;49110;52.584;13.408;2023-06-14T02:32:59;16.20;81.80
14014;DHT22;49110;52.584;13.408;2023-06-14T02:33:59;16.10;81.80
14014;DHT22;49110;52.584;13.408;2023-06-14T02:35:00;16.10;82.00
14014;DHT22;49110;52.584;13.408;2023-06-14T02:36:01;16.10;82.10
14014;DHT22;49110;52.584;13.408;2023-06-14T02:37:03;16.10;82.10
14014;DHT22;49110;52.584;13.408;2023-06-14T02:38:03;16.10;82.30
14014;DHT22;49110;52.584;13.408;2023-06-14T02:39:04;16.00;82.30
14014;DHT22;49110;52.584;13.408;2023-06-14T02:40:05;16.00;82.40
14014;DHT22;49110;52.584;13.408;2023-06-14T02:41:06;16.00;82.50
14014;DHT22;49110;52.584;13.408;2023-06-14T02:42:07;16.00;82.60
14014;DHT22;49110;52.584;13.408;2023-06-14T02:43:08;16.10;82.60
14014;DHT22;49110;52.584;13.408;2023-06-14T02:44:09;16.10;82.60
14014;DHT22;49110;52.584;13.408;2023-06-14T02:45:12;16.10;82.50
14014;DHT22;49110;52.584;13.408;2023-06-14T02:46:12;16.00;82.60
14014;DHT22;49110;52.584;13.408;2023-06-14T02:47:12;15.90;82.90
14014;DHT22;49110;52.584;13.408;2023-06-14T02:48:13;15.90;83.20
14014;DHT22;49110;52.584;13.408;2023-06-14T02:49:13;15.90;83.20
14014;DHT22;49110;52.584;13.408;2023-06-14T02:50:14;15.90;83.20
14014;DHT22;49110;52.584;13.408;2023-06-14T02:51:14;15.90;83.50
14014;DHT22;49110;52.584;13.408;2023-06-14T02:52:15;15.80;83.70
14014;DHT22;49110;52.584;13.408;2023-06-14T02:53:16;15.70;84.10
14014;DHT22;49110;52.584;13.408;2023-06-14T02:54:17;15.60;84.50
14014;DHT22;49110;52.584;13.408;2023-06-14T02:55:18;15.50;84.80
14014;DHT22;49110;52.584;13.408;2023-06-14T02:56:18;15.50;85.30
14014;DHT22;49110;52.584;13.408;2023-06-14T02:57:22;15.40;85.80
14014;DHT22;49110;52.584;13.408;2023-06-14T02:58:23;15.40;86.20
14014;DHT22;49110;52.584;13.408;2023-06-14T02:59:25;15.40;86.20
14014;DHT22;49110;52.584;13.408;2023-06-14T03:00:26;15.30;86.10
14014;DHT22;49110;52.584;13.408;2023-06-14T03:01:27;15.40;86.30
14014;DHT22;49110;52.584;13.408;2023-06-14T03:02:34;15.50;86.30
14014;DHT22;49110;52.584;13.408;2023-06-14T03:03:34;15.60;86.40
14014;DHT22;49110;52.584;13.408;2023-06-14T03:04:35;15.50;85.90
14014;DHT22;49110;52.584;13.408;2023-06-14T03:05:37;15.60;85.90
14014;DHT22;49110;52.584;13.408;2023-06-14T03:06:41;15.60;85.70
14014;DHT22;49110;52.584;13.408;2023-06-14T03:07:44;15.50;85.90
14014;DHT22;49110;52.584;13.408;2023-06-14T03:08:45;15.40;86.20
14014;DHT22;49110;52.584;13.408;2023-06-14T03:09:46;15.30;86.30
14014;DHT22;49110;52.584;13.408;2023-06-14T03:10:47;15.30;86.60
14014;DHT22;49110;52.584;13.408;2023-06-14T03:11:48;15.30;87.00
14014;DHT22;49110;52.584;13.408;2023-06-14T03:12:48;15.20;87.30
14014;DHT22;49110;52.584;13.408;2023-06-14T03:13:48;15.20;87.80
14014;DHT22;49110;52.584;13.408;2023-06-14T03:14:51;15.20;87.90
14014;DHT22;49110;52.584;13.408;2023-06-14T03:15:51;15.20;87.90
14014;DHT22;49110;52.584;13.408;2023-06-14T03:16:52;15.20;87.90
14014;DHT22;49110;52.584;13.408;2023-06-14T03:17:56;15.10;88.20
14014;DHT22;49110;52.584;13.408;2023-06-14T03:18:57;15.00;88.60
14014;DHT22;49110;52.584;13.408;2023-06-14T03:19:58;15.00;88.90
14014;DHT22;49110;52.584;13.408;2023-06-14T03:20:58;15.10;89.30
14014;DHT22;49110;52.584;13.408;2023-06-14T03:21:58;15.00;89.30
14014;DHT22;49110;52.584;13.408;2023-06-14T03:23:02;15.00;89.40
14014;DHT22;49110;52.584;13.408;2023-06-14T03:24:03;15.10;89.70
14014;DHT22;49110;52.584;13.408;2023-06-14T03:25:04;15.00;89.80
14014;DHT22;49110;52.584;13.408;2023-06-14T03:26:05;15.00;90.00
14014;DHT22;49110;52.584;13.408;2023-06-14T03:27:05;15.00;90.00
14014;DHT22;49110;52.584;13.408;2023-06-14T03:28:06;15.00;90.10
14014;DHT22;49110;52.584;13.408;2023-06-14T03:29:06;15.00;90.20
14014;DHT22;49110;52.584;13.408;2023-06-14T03:30:08;15.00;90.20
14014;DHT22;49110;52.584;13.408;2023-06-14T03:31:08;15.10;90.30
14014;DHT22;49110;52.584;13.408;2023-06-14T03:32:09;15.20;90.20
14014;DHT22;49110;52.584;13.408;2023-06-14T03:33:09;15.30;90.10
14014;DHT22;49110;52.584;13.408;2023-06-14T03:34:10;15.30;90.00
14014;DHT22;49110;52.584;13.408;2023-06-14T03:35:10;15.40;89.90
14014;DHT22;49110;52.584;13.408;2023-06-14T03:36:17;15.40;89.70
14014;DHT22;49110;52.584;13.408;2023-06-14T03:37:18;15.50;89.50
14014;DHT22;49110;52.584;13.408;2023-06-14T03:38:19;15.50;89.30
14014;DHT22;49110;52.584;13.408;2023-06-14T03:39:19;15.50;89.40
14014;DHT22;49110;52.584;13.408;2023-06-14T03:40:21;15.40;89.40
14014;DHT22;49110;52.584;13.408;2023-06-14T03:41:21;15.40;89.60
14014;DHT22;49110;52.584;13.408;2023-06-14T03:42:22;15.40;89.80
14014;DHT22;49110;52.584;13.408;2023-06-14T03:43:22;15.40;89.90
14014;DHT22;49110;52.584;13.408;2023-06-14T03:44:23;15.40;90.00
14014;DHT22;49110;52.584;13.408;2023-06-14T03:45:23;15.50;90.00
14014;DHT22;49110;52.584;13.408;2023-06-14T03:46:24;15.50;89.90
14014;DHT22;49110;52.584;13.408;2023-06-14T03:47:24;15.50;89.80
14014;DHT22;49110;52.584;13.408;2023-06-14T03:48:25;15.50;89.80
14014;DHT22;49110;52.584;13.408;2023-06-14T03:49:26;15.50;89.90
14014;DHT22;49110;52.584;13.408;2023-06-14T03:50:26;15.50;89.90
14014;DHT22;49110;52.584;13.408;2023-06-14T03:51:27;15.60;89.90
14014;DHT22;49110;52.584;13.408;2023-06-14T03:52:29;15.50;89.90
14014;DHT22;49110;52.584;13.408;2023-06-14T03:53:30;15.50;90.10
14014;DHT22;49110;52.584;13.408;2023-06-14T03:54:30;15.40;90.30
14014;DHT22;49110;52.584;13.408;2023-06-14T03:55:32;15.30;90.40
14014;DHT22;49110;52.584;13.408;2023-06-14T03:56:33;15.40;90.50
14014;DHT22;49110;52.584;13.408;2023-06-14T03:57:34;15.50;90.50
14014;DHT22;49110;52.584;13.408;2023-06-14T03:58:34;15.50;90.50
14014;DHT22;49110;52.584;13.408;2023-06-14T03:59:35;15.40;90.50
14014;DHT22;49110;52.584;13.408;2023-06-14T04:00:35;15.40;90.70
14014;DHT22;49110;52.584;13.408;2023-06-14T04:01:36;15.40;90.80
14014;DHT22;49110;52.584;13.408;2023-06-14T04:02:36;15.30;90.90
14014;DHT22;49110;52.584;13.408;2023-06-14T04:03:37;15.40;90.90
14014;DHT22;49110;52.584;13.408;2023-06-14T04:04:37;15.40;90.90
14014;DHT22;49110;52.584;13.408;2023-06-14T04:05:38;15.40;91.00
14014;DHT22;49110;52.584;13.408;2023-06-14T04:06:42;15.40;91.20
14014;DHT22;49110;52.584;13.408;2023-06-14T04:07:43;15.40;91.20
14014;DHT22;49110;52.584;13.408;2023-06-14T04:08:45;15.40;91.30
14014;DHT22;49110;52.584;13.408;2023-06-14T04:09:46;15.30;91.30
14014;DHT22;49110;52.584;13.408;2023-06-14T04:10:46;15.40;91.50
14014;DHT22;49110;52.584;13.408;2023-06-14T04:11:47;15.40;91.40
14014;DHT22;49110;52.584;13.408;2023-06-14T04:12:48;15.50;91.40
14014;DHT22;49110;52.584;13.408;2023-06-14T04:13:48;15.60;91.40
14014;DHT22;49110;52.584;13.408;2023-06-14T04:14:49;15.60;91.30
14014;DHT22;49110;52.584;13.408;2023-06-14T04:15:50;15.70;91.20
14014;DHT22;49110;52.584;13.408;2023-06-14T04:16:51;15.70;91.30
14014;DHT22;49110;52.584;13.408;2023-06-14T04:17:52;15.70;91.20
14014;DHT22;49110;52.584;13.408;2023-06-14T04:18:57;15.70;91.30
14014;DHT22;49110;52.584;13.408;2023-06-14T04:19:59;15.60;91.30
14014;DHT22;49110;52.584;13.408;2023-06-14T04:21:00;15.70;91.60
14014;DHT22;49110;52.584;13.408;2023-06-14T04:22:00;15.70;91.60
14014;DHT22;49110;52.584;13.408;2023-06-14T04:23:15;15.90;91.40
14014;DHT22;49110;52.584;13.408;2023-06-14T04:24:18;16.00;91.20
14014;DHT22;49110;52.584;13.408;2023-06-14T04:25:18;16.10;91.00
14014;DHT22;49110;52.584;13.408;2023-06-14T04:26:19;16.00;90.80
14014;DHT22;49110;52.584;13.408;2023-06-14T04:27:21;15.90;91.10
14014;DHT22;49110;52.584;13.408;2023-06-14T04:28:21;15.80;91.30
14014;DHT22;49110;52.584;13.408;2023-06-14T04:29:27;15.80;91.40
14014;DHT22;49110;52.584;13.408;2023-06-14T04:30:29;15.80;91.50
14014;DHT22;49110;52.584;13.408;2023-06-14T04:31:31;15.90;91.50
14014;DHT22;49110;52.584;13.408;2023-06-14T04:32:37;15.90;91.30
14014;DHT22;49110;52.584;13.408;2023-06-14T04:33:39;15.80;91.40
14014;DHT22;49110;52.584;13.408;2023-06-14T04:34:43;15.90;91.50
14014;DHT22;49110;52.584;13.408;2023-06-14T04:35:44;15.90;91.40
14014;DHT22;49110;52.584;13.408;2023-06-14T04:36:47;16.00;91.40
14014;DHT22;49110;52.584;13.408;2023-06-14T04:37:53;16.10;91.30
14014;DHT22;49110;52.584;13.408;2023-06-14T04:38:53;16.20;91.20
14014;DHT22;49110;52.584;13.408;2023-06-14T04:39:55;16.30;91.00
14014;DHT22;49110;52.584;13.408;2023-06-14T04:40:56;16.40;90.90
14014;DHT22;49110;52.584;13.408;2023-06-14T04:41:57;16.30;90.90
14014;DHT22;49110;52.584;13.408;2023-06-14T04:42:58;16.30;90.90
14014;DHT22;49110;52.584;13.408;2023-06-14T04:44:00;16.30;90.90
14014;DHT22;49110;52.584;13.408;2023-06-14T04:45:01;16.30;91.00
14014;DHT22;49110;52.584;13.408;2023-06-14T04:46:02;16.30;91.10
14014;DHT22;49110;52.584;13.408;2023-06-14T04:47:03;16.20;91.00
14014;DHT22;49110;52.584;13.408;2023-06-14T04:48:04;16.20;91.20
14014;DHT22;49110;52.584;13.408;2023-06-14T04:49:06;16.20;91.30
14014;DHT22;49110;52.584;13.408;2023-06-14T04:50:07;16.10;91.40
14014;DHT22;49110;52.584;13.408;2023-06-14T04:51:08;16.10;91.50
14014;DHT22;49110;52.584;13.408;2023-06-14T04:52:09;16.10;91.70
14014;DHT22;49110;52.584;13.408;2023-06-14T04:53:10;16.10;91.80
14014;DHT22;49110;52.584;13.408;2023-06-14T04:54:11;16.20;91.90
14014;DHT22;49110;52.584;13.408;2023-06-14T04:55:15;16.30;91.90
14014;DHT22;49110;52.584;13.408;2023-06-14T04:56:15;16.40;91.80
14014;DHT22;49110;52.584;13.408;2023-06-14T04:57:17;16.40;91.60
14014;DHT22;49110;52.584;13.408;2023-06-14T04:58:17;16.50;91.40
14014;DHT22;49110;52.584;13.408;2023-06-14T04:59:18;16.60;91.30
14014;DHT22;49110;52.584;13.408;2023-06-14T05:00:19;16.70;91.30
14014;DHT22;49110;52.584;13.408;2023-06-14T05:01:20;16.70;91.30
14014;DHT22;49110;52.584;13.408;2023-06-14T05:02:22;16.80;91.10
14014;DHT22;49110;52.584;13.408;2023-06-14T05:03:23;16.80;91.00
14014;DHT22;49110;52.584;13.408;2023-06-14T05:04:24;16.90;90.80
14014;DHT22;49110;52.584;13.408;2023-06-14T05:05:26;16.90;90.70
14014;DHT22;49110;52.584;13.408;2023-06-14T05:06:26;16.90;90.80
14014;DHT22;49110;52.584;13.408;2023-06-14T05:07:27;16.90;90.80
14014;DHT22;49110;52.584;13.408;2023-06-14T05:08:28;16.90;90.70
14014;DHT22;49110;52.584;13.408;2023-06-14T05:09:28;16.80;90.70
14014;DHT22;49110;52.584;13.408;2023-06-14T05:10:29;16.70;91.00
14014;DHT22;49110;52.584;13.408;2023-06-14T05:11:29;16.70;91.10
14014;DHT22;49110;52.584;13.408;2023-06-14T05:12:30;16.50;91.30
14014;DHT22;49110;52.584;13.408;2023-06-14T05:13:30;16.40;91.50
14014;DHT22;49110;52.584;13.408;2023-06-14T05:14:33;16.30;91.70
14014;DHT22;49110;52.584;13.408;2023-06-14T05:15:33;16.30;91.80
14014;DHT22;49110;52.584;13.408;2023-06-14T05:16:34;16.30;92.00
14014;DHT22;49110;52.584;13.408;2023-06-14T05:17:35;16.40;92.00
14014;DHT22;49110;52.584;13.408;2023-06-14T05:18:36;16.40;92.00
14014;DHT22;49110;52.584;13.408;2023-06-14T05:19:37;16.40;92.20
14014;DHT22;49110;52.584;13.408;2023-06-14T05:20:38;16.50;91.80
14014;DHT22;49110;52.584;13.408;2023-06-14T05:21:38;16.60;91.70
14014;DHT22;49110;52.584;13.408;2023-06-14T05:22:39;16.60;91.70
14014;DHT22;49110;52.584;13.408;2023-06-14T05:23:39;16.60;91.70
14014;DHT22;49110;52.584;13.408;2023-06-14T05:24:40;16.60;91.70
14014;DHT22;49110;52.584;13.408;2023-06-14T05:25:43;16.60;91.70
14014;DHT22;49110;52.584;13.408;2023-06-14T05:26:44;16.60;91.80
14014;DHT22;49110;52.584;13.408;2023-06-14T05:27:44;16.70;91.90
14014;DHT22;49110;52.584;13.408;2023-06-14T05:28:45;16.70;91.80
14014;DHT22;49110;52.584;13.408;2023-06-14T05:29:45;16.70;91.60
14014;DHT22;49110;52.584;13.408;2023-06-14T05:30:46;16.70;91.60
14014;DHT22;49110;52.584;13.408;2023-06-14T05:31:46;16.70;91.60
14014;DHT22;49110;52.584;13.408;2023-06-14T05:32:47;16.70;91.70
14014;DHT22;49110;52.584;13.408;2023-06-14T05:33:47;16.70;91.40
14014;DHT22;49110;52.584;13.408;2023-06-14T05:34:48;16.80;91.80
14014;DHT22;49110;52.584;13.408;2023-06-14T05:35:49;16.90;91.80
14014;DHT22;49110;52.584;13.408;2023-06-14T05:36:49;17.10;91.60
14014;DHT22;49110;52.584;13.408;2023-06-14T05:37:50;17.20;91.50
14014;DHT22;49110;52.584;13.408;2023-06-14T05:38:51;17.20;91.10
14014;DHT22;49110;52.584;13.408;2023-06-14T05:39:57;17.10;91.00
14014;DHT22;49110;52.584;13.408;2023-06-14T05:40:58;16.90;91.20
14014;DHT22;49110;52.584;13.408;2023-06-14T05:41:59;16.90;91.40
14014;DHT22;49110;52.584;13.408;2023-06-14T05:43:00;16.90;91.30
14014;DHT22;49110;52.584;13.408;2023-06-14T05:44:01;16.90;91.80
14014;DHT22;49110;52.584;13.408;2023-06-14T05:45:01;16.80;91.70
14014;DHT22;49110;52.584;13.408;2023-06-14T05:46:02;16.90;91.90
14014;DHT22;49110;52.584;13.408;2023-06-14T05:47:02;16.90;91.80
14014;DHT22;49110;52.584;13.408;2023-06-14T05:48:03;16.90;91.70
14014;DHT22;49110;52.584;13.408;2023-06-14T05:49:03;16.90;91.70
14014;DHT22;49110;52.584;13.408;2023-06-14T05:50:04;16.90;91.70
14014;DHT22;49110;52.584;13.408;2023-06-14T05:51:05;17.00;91.80
14014;DHT22;49110;52.584;13.408;2023-06-14T05:52:09;17.00;91.50
14014;DHT22;49110;52.584;13.408;2023-06-14T05:53:10;17.10;91.50
14014;DHT22;49110;52.584;13.408;2023-06-14T05:54:11;17.00;91.40
14014;DHT22;49110;52.584;13.408;2023-06-14T05:55:11;17.00;91.50
14014;DHT22;49110;52.584;13.408;2023-06-14T05:56:13;16.90;91.70
14014;DHT22;49110;52.584;13.408;2023-06-14T05:57:13;16.90;91.80
14014;DHT22;49110;52.584;13.408;2023-06-14T05:58:14;17.00;91.90
14014;DHT22;49110;52.584;13.408;2023-06-14T05:59:14;17.10;91.80
14014;DHT22;49110;52.584;13.408;2023-06-14T06:00:15;17.10;91.80
14014;DHT22;49110;52.584;13.408;2023-06-14T06:01:16;17.20;91.50
14014;DHT22;49110;52.584;13.408;2023-06-14T06:02:16;17.10;91.30
14014;DHT22;49110;52.584;13.408;2023-06-14T06:03:17;17.10;91.40
14014;DHT22;49110;52.584;13.408;2023-06-14T06:04:17;17.20;91.50
14014;DHT22;49110;52.584;13.408;2023-06-14T06:05:18;17.20;91.40
14014;DHT22;49110;52.584;13.408;2023-06-14T06:06:18;17.20;91.50
14014;DHT22;49110;52.584;13.408;2023-06-14T06:07:19;17.20;91.50
14014;DHT22;49110;52.584;13.408;2023-06-14T06:08:20;17.10;91.70
14014;DHT22;49110;52.584;13.408;2023-06-14T06:09:21;17.10;91.80
14014;DHT22;49110;52.584;13.408;2023-06-14T06:10:21;17.20;91.90
14014;DHT22;49110;52.584;13.408;2023-06-14T06:11:22;17.20;91.80
14014;DHT22;49110;52.584;13.408;2023-06-14T06:12:22;17.30;91.80
14014;DHT22;49110;52.584;13.408;2023-06-14T06:13:23;17.40;91.50
14014;DHT22;49110;52.584;13.408;2023-06-14T06:14:23;17.40;91.40
14014;DHT22;49110;52.584;13.408;2023-06-14T06:15:23;17.50;91.50
14014;DHT22;49110;52.584;13.408;2023-06-14T06:16:24;17.50;91.20
14014;DHT22;49110;52.584;13.408;2023-06-14T06:17:25;17.50;91.10
14014;DHT22;49110;52.584;13.408;2023-06-14T06:18:26;17.50;91.30
14014;DHT22;49110;52.584;13.408;2023-06-14T06:19:26;17.50;91.20
14014;DHT22;49110;52.584;13.408;2023-06-14T06:20:27;17.40;91.10
14014;DHT22;49110;52.584;13.408;2023-06-14T06:21:29;17.40;91.20
14014;DHT22;49110;52.584;13.408;2023-06-14T06:22:29;17.40;91.40